Birkenfeld, Oregon
Current Conditions -  °F | °C
As of 12:55 AM on Wednesday 22 Oct 2014 (Local Time) from KKLS Reporting Station
Overcast Overcast  
Wind Chill: 57°   Ceiling: 10000
Heat Index: 57°   Visibility: 10mi
Dew Point: 46°   Wind: 16mph
Humidity: 67%   Direction: 150°SSE
Pressure: 29.8"   Gusts: 31mph
Location:  46.0479°N, 123.274°W
Report Text: KKLS 220755Z AUTO 15014G27KT 10SM FEW070 BKN100 OVC120 14/08 A2980 RMK AO1
Loading
Personal Weather Stations






























Interactive Weather Map
Tropical Storm Tracking
New forecast layout! Learn more

10-Day Weather Forecast

Advertisements
Track Severe Weather on mobile